createdAt,value
2023-02-25T00:00:41.256Z,16.98
2023-02-25T00:02:46.390Z,18.85
2023-02-25T00:04:48.329Z,17.33
2023-02-25T00:06:50.756Z,21.83
2023-02-25T00:08:54.316Z,15.60
2023-02-25T00:11:03.845Z,14.00
2023-02-25T00:13:17.846Z,19.13
2023-02-25T00:15:21.056Z,22.47
2023-02-25T00:17:23.578Z,22.55
2023-02-25T00:19:27.131Z,27.53
2023-02-25T00:21:29.680Z,30.08
2023-02-25T00:23:32.261Z,22.45
2023-02-25T00:25:34.353Z,22.23
2023-02-25T00:27:37.443Z,49.70
2023-02-25T00:29:39.494Z,40.53
2023-02-25T00:31:42.479Z,33.57
2023-02-25T00:33:45.018Z,34.97
2023-02-25T00:35:48.694Z,49.50
2023-02-25T00:37:52.274Z,29.85
2023-02-25T00:39:54.544Z,25.33
2023-02-25T00:41:56.477Z,21.85
2023-02-25T00:44:01.098Z,17.65
2023-02-25T00:46:03.231Z,16.63
2023-02-25T00:48:07.743Z,25.60
2023-02-25T00:50:11.674Z,19.07
2023-02-25T00:52:15.136Z,24.23
2023-02-25T00:54:17.474Z,18.20
2023-02-25T00:56:20.997Z,15.43
2023-02-25T00:58:23.365Z,18.35
2023-02-25T01:00:25.737Z,21.38
2023-02-25T01:02:27.783Z,17.60
2023-02-25T01:04:29.992Z,18.13
2023-02-25T01:06:34.000Z,17.83
2023-02-25T01:08:39.070Z,23.58
2023-02-25T01:10:41.689Z,21.13
2023-02-25T01:12:43.866Z,18.10
2023-02-25T01:14:45.905Z,16.53
2023-02-25T01:16:49.475Z,20.02
2023-02-25T01:18:54.296Z,21.15
2023-02-25T01:20:57.233Z,19.58
2023-02-25T01:22:59.379Z,18.25
2023-02-25T01:25:01.861Z,18.88
2023-02-25T01:27:04.473Z,23.63
2023-02-25T01:29:08.487Z,29.77
2023-02-25T01:31:18.813Z,21.83
2023-02-25T01:33:21.627Z,23.58
2023-02-25T01:35:23.727Z,22.67
2023-02-25T01:37:27.052Z,24.42
2023-02-25T01:39:30.298Z,21.77
2023-02-25T01:41:34.539Z,26.55
2023-02-25T01:43:36.727Z,28.23
2023-02-25T01:45:43.468Z,34.53
2023-02-25T01:47:50.761Z,61.42
2023-02-25T01:49:53.017Z,41.33
2023-02-25T01:52:11.856Z,36.40
2023-02-25T01:54:14.973Z,28.73
2023-02-25T01:56:21.128Z,45.13
2023-02-25T01:58:23.647Z,50.70
2023-02-25T02:00:27.920Z,32.85
2023-02-25T02:02:33.522Z,35.40
2023-02-25T02:04:42.117Z,44.97
2023-02-25T02:06:50.539Z,34.73
2023-02-25T02:08:52.846Z,48.53
2023-02-25T02:10:56.426Z,54.30
2023-02-25T02:12:58.636Z,48.03
2023-02-25T02:15:04.715Z,40.97
2023-02-25T02:17:18.979Z,37.33
2023-02-25T02:19:35.882Z,36.13
2023-02-25T02:22:17.709Z,34.87
2023-02-25T02:24:22.730Z,31.67
2023-02-25T02:26:51.013Z,39.00
2023-02-25T02:29:19.336Z,46.40
2023-02-25T02:31:39.645Z,67.77
2023-02-25T02:33:57.320Z,41.37
2023-02-25T02:36:06.129Z,34.13
2023-02-25T02:38:29.494Z,44.73
2023-02-25T02:40:58.922Z,36.87
2023-02-25T02:43:11.100Z,37.20
2023-02-25T02:45:16.049Z,33.35
2023-02-25T02:47:25.951Z,30.63
2023-02-25T02:50:00.168Z,27.38
2023-02-25T02:52:08.573Z,28.77
2023-02-25T02:54:14.277Z,36.83
2023-02-25T02:56:20.208Z,28.73
2023-02-25T02:58:57.286Z,28.05
2023-02-25T03:01:12.542Z,35.23
2023-02-25T03:03:22.376Z,31.35
2023-02-25T03:05:28.643Z,55.45
2023-02-25T03:07:35.768Z,33.05
2023-02-25T03:09:54.503Z,33.97
2023-02-25T03:11:56.963Z,47.40
2023-02-25T03:13:59.441Z,45.83
2023-02-25T03:16:06.040Z,46.17
2023-02-25T03:18:22.075Z,43.00
2023-02-25T03:20:42.290Z,40.65
2023-02-25T03:22:47.943Z,34.00
2023-02-25T03:25:01.065Z,40.17
2023-02-25T03:27:26.044Z,33.47
2023-02-25T03:29:31.221Z,39.83
2023-02-25T03:31:43.213Z,45.53
2023-02-25T03:33:54.821Z,39.17
2023-02-25T03:35:59.657Z,31.20
2023-02-25T03:38:20.966Z,31.27
2023-02-25T03:40:26.907Z,22.45
2023-02-25T03:42:33.778Z,24.77
2023-02-25T03:44:42.047Z,24.83
2023-02-25T03:46:47.397Z,31.27
2023-02-25T03:48:52.187Z,33.65
2023-02-25T03:51:02.117Z,41.78
2023-02-25T03:53:05.411Z,31.13
2023-02-25T03:55:39.856Z,33.65
2023-02-25T03:57:47.372Z,34.53
2023-02-25T03:59:49.478Z,29.63
2023-02-25T04:01:53.768Z,26.92
2023-02-25T04:03:55.833Z,28.40
2023-02-25T04:05:58.623Z,29.13
2023-02-25T04:08:01.145Z,24.75
2023-02-25T04:10:10.940Z,32.88
2023-02-25T04:12:13.194Z,30.35
2023-02-25T04:14:15.931Z,28.65
2023-02-25T04:16:17.987Z,32.78
2023-02-25T04:18:21.200Z,31.58
2023-02-25T04:20:23.336Z,23.50
2023-02-25T04:22:25.827Z,36.83
2023-02-25T04:24:27.601Z,27.88
2023-02-25T04:26:29.792Z,30.27
2023-02-25T04:28:32.195Z,34.78
2023-02-25T04:30:34.580Z,19.70
2023-02-25T04:32:36.728Z,26.08
2023-02-25T04:34:39.027Z,25.17
2023-02-25T04:36:41.724Z,22.83
2023-02-25T04:38:44.097Z,27.35
2023-02-25T04:40:46.143Z,24.77
2023-02-25T04:42:48.775Z,21.00
2023-02-25T04:44:50.816Z,25.52
2023-02-25T04:46:53.510Z,19.30
2023-02-25T04:48:56.171Z,33.00
2023-02-25T04:51:02.889Z,22.55
2023-02-25T04:53:04.849Z,30.05
2023-02-25T04:55:10.640Z,37.73
2023-02-25T04:57:13.226Z,34.60
2023-02-25T04:59:16.331Z,32.40
2023-02-25T05:01:18.474Z,24.40
2023-02-25T05:03:20.825Z,30.33
2023-02-25T05:05:23.455Z,25.88
2023-02-25T05:07:25.606Z,21.67
2023-02-25T05:09:27.838Z,29.90
2023-02-25T05:11:29.897Z,31.13
2023-02-25T05:13:32.809Z,40.77
2023-02-25T05:15:35.110Z,31.52
2023-02-25T05:17:37.162Z,42.63
2023-02-25T05:19:39.184Z,41.80
2023-02-25T05:21:41.192Z,33.22
2023-02-25T05:23:44.903Z,26.90
2023-02-25T05:25:47.119Z,28.60
2023-02-25T05:27:49.197Z,27.35
2023-02-25T05:29:51.892Z,23.90
2023-02-25T05:31:55.418Z,23.47
2023-02-25T05:33:57.604Z,21.98
2023-02-25T05:35:59.611Z,17.70
2023-02-25T05:38:02.020Z,20.67
2023-02-25T05:40:04.658Z,28.15
2023-02-25T05:42:07.055Z,21.23
2023-02-25T05:44:11.044Z,24.65
2023-02-25T05:46:14.228Z,21.93
2023-02-25T05:48:16.284Z,22.47
2023-02-25T05:50:18.391Z,24.65
2023-02-25T05:52:20.495Z,35.73
2023-02-25T05:54:22.817Z,80.60
2023-02-25T05:56:26.154Z,80.03
2023-02-25T05:58:28.387Z,51.13
2023-02-25T06:00:30.291Z,52.58
2023-02-25T06:02:33.837Z,63.35
2023-02-25T06:04:36.090Z,64.27
2023-02-25T06:06:38.172Z,61.07
2023-02-25T06:08:42.047Z,55.53
2023-02-25T06:10:44.287Z,31.70
2023-02-25T06:12:48.882Z,36.60
2023-02-25T06:14:50.933Z,33.58
2023-02-25T06:16:57.165Z,43.60
2023-02-25T06:19:01.256Z,46.08
2023-02-25T06:21:05.650Z,63.65
2023-02-25T06:23:07.814Z,74.85
2023-02-25T06:25:10.160Z,115.07
2023-02-25T06:27:12.749Z,85.80
2023-02-25T06:29:15.005Z,90.80
2023-02-25T06:31:19.224Z,81.70
2023-02-25T06:33:21.300Z,69.13
2023-02-25T06:35:23.962Z,141.10
2023-02-25T06:37:26.157Z,190.47
2023-02-25T06:39:28.234Z,473.57
2023-02-25T06:41:30.453Z,181.50
2023-02-25T06:43:32.531Z,82.68
2023-02-25T06:45:34.488Z,76.90
2023-02-25T06:47:36.718Z,57.42
2023-02-25T06:49:38.786Z,76.85
2023-02-25T06:51:40.861Z,55.83
2023-02-25T06:53:44.884Z,62.50
2023-02-25T06:55:47.058Z,63.53
2023-02-25T06:57:49.181Z,70.85
2023-02-25T06:59:53.603Z,70.45
2023-02-25T07:01:55.722Z,44.67
2023-02-25T07:03:57.892Z,51.13
2023-02-25T07:06:00.060Z,38.90
2023-02-25T07:08:02.555Z,36.30
2023-02-25T07:10:05.364Z,32.30
2023-02-25T07:12:07.955Z,23.77
2023-02-25T07:14:10.102Z,43.33
2023-02-25T07:16:14.031Z,31.45
2023-02-25T07:18:16.333Z,21.55
2023-02-25T07:20:18.585Z,26.13
2023-02-25T07:22:22.257Z,20.05
2023-02-25T07:24:27.011Z,27.27
2023-02-25T07:26:29.033Z,22.50
2023-02-25T07:28:31.623Z,16.17
2023-02-25T07:30:34.186Z,17.13
2023-02-25T07:32:36.362Z,18.35
2023-02-25T07:34:39.355Z,23.40
2023-02-25T07:36:41.611Z,16.30
2023-02-25T07:38:44.353Z,16.02
2023-02-25T07:40:46.370Z,20.42
2023-02-25T07:42:48.435Z,18.83
2023-02-25T07:44:52.009Z,19.33
2023-02-25T07:46:54.484Z,17.63
2023-02-25T07:48:56.690Z,18.57
2023-02-25T07:51:10.819Z,21.43
2023-02-25T07:53:12.927Z,23.92
2023-02-25T07:55:15.131Z,30.60
2023-02-25T07:57:17.309Z,29.17
2023-02-25T07:59:23.266Z,27.83
2023-02-25T08:01:27.339Z,21.98
2023-02-25T08:03:29.929Z,20.52
2023-02-25T08:05:36.884Z,23.87
2023-02-25T08:07:41.103Z,23.27
2023-02-25T08:09:43.702Z,21.80
2023-02-25T08:11:46.450Z,15.43
2023-02-25T08:13:48.823Z,15.55
2023-02-25T08:15:50.968Z,20.80
2023-02-25T08:17:56.024Z,17.07
2023-02-25T08:19:58.383Z,25.63
2023-02-25T08:22:00.503Z,25.35
2023-02-25T08:24:02.836Z,30.50
2023-02-25T08:26:05.716Z,34.07
2023-02-25T08:28:07.699Z,24.53
2023-02-25T08:30:10.802Z,32.77
2023-02-25T08:32:12.953Z,27.92
2023-02-25T08:34:15.171Z,21.17
2023-02-25T08:36:20.746Z,23.77
2023-02-25T08:38:22.947Z,22.03
2023-02-25T08:40:25.104Z,23.92
2023-02-25T08:42:27.928Z,22.50
2023-02-25T08:44:30.106Z,22.50
2023-02-25T08:46:40.612Z,28.00
2023-02-25T08:48:42.974Z,31.10
2023-02-25T08:50:45.296Z,43.05
2023-02-25T08:52:47.503Z,39.70
2023-02-25T08:54:50.980Z,40.03
2023-02-25T08:56:55.634Z,34.07
2023-02-25T08:58:57.678Z,37.30
2023-02-25T09:00:59.817Z,34.47
2023-02-25T09:03:02.056Z,32.28
2023-02-25T09:05:04.776Z,30.48
2023-02-25T09:07:06.878Z,34.97
2023-02-25T09:09:09.764Z,36.17
2023-02-25T09:11:11.878Z,38.90
2023-02-25T09:13:14.958Z,27.13
2023-02-25T09:15:17.186Z,23.33
2023-02-25T09:17:19.375Z,24.17
2023-02-25T09:19:21.686Z,23.05
2023-02-25T09:21:24.954Z,24.85
2023-02-25T09:23:27.383Z,51.22
2023-02-25T09:25:30.942Z,126.22
2023-02-25T09:27:33.143Z,217.90
2023-02-25T09:29:37.021Z,184.48
2023-02-25T09:31:40.032Z,321.98
2023-02-25T09:33:43.148Z,217.20
2023-02-25T09:35:45.584Z,144.88
2023-02-25T09:37:50.476Z,93.45
2023-02-25T09:39:52.545Z,64.28
2023-02-25T09:42:38.971Z,55.17
2023-02-25T09:44:45.378Z,48.45
2023-02-25T09:47:11.418Z,49.65
2023-02-25T09:49:26.681Z,45.15
